Terminal Aerodrome Forecast
Issued by NWS

Home | Current Version | Previous Version | Text Only | Print | Product List | Glossary On
Versions: 1 2 3 4 5 6 7 8 9 10 11 12
000
FTUS44 KEPZ 261100
TAFDMN
TAF
KDMN 261127Z 2612/2712 25007KT P6SM SKC
     FM261800 29008KT P6SM FEW090
     FM270000 32011G18KT P6SM VCTS SCT090CB=

USA.gov is the U.S. government's official web portal to all federal, state and local government web resources and services.